Time;durP1;ratioP1;P1;durP2;ratioP2;P2;SDS_P1;SDS_P2;PMS_P1;PMS_P2;Temp;Humidity;BMP_temperature;BMP_pressure;BME280_temperature;BME280_humidity;BME280_pressure;Samples;Min_cycle;Max_cycle;Signal;HPM_P1;HPM_P2
2022/12/07 00:01:27;;;;;;;0.70;0.70;;;3.60;99.90;;;;;;5050318;28;19925;-83
2022/12/07 00:04:00;;;;;;;0.63;0.63;;;3.70;99.90;;;;;;5051813;28;20041;-83
2022/12/07 00:06:26;;;;;;;0.50;0.50;;;4.70;99.90;;;;;;5052473;28;21876;-83
2022/12/07 00:08:52;;;;;;;0.70;0.70;;;4.20;99.90;;;;;;5035884;28;20124;-83
2022/12/07 00:11:22;;;;;;;0.50;0.50;;;3.50;99.90;;;;;;5035195;28;20053;-83
2022/12/07 00:13:58;;;;;;;0.52;0.52;;;3.50;99.90;;;;;;5063559;28;20052;-84
2022/12/07 00:16:27;;;;;;;0.60;0.60;;;4.50;99.90;;;;;;5052790;28;20056;-82
2022/12/07 00:18:53;;;;;;;0.43;0.43;;;3.50;99.90;;;;;;5052160;28;20053;-83
2022/12/07 00:21:27;;;;;;;0.52;0.52;;;3.40;99.90;;;;;;5048515;28;20422;-84
2022/12/07 00:23:54;;;;;;;0.70;0.70;;;3.40;99.90;;;;;;5034559;28;20060;-83
2022/12/07 00:26:23;;;;;;;0.60;0.60;;;3.40;99.90;;;;;;5052023;28;20493;-80
2022/12/07 00:28:54;;;;;;;0.55;0.55;;;3.30;99.90;;;;;;5053365;28;20059;-84
2022/12/07 00:31:22;;;;;;;0.70;0.70;;;3.20;99.90;;;;;;5058419;28;20458;-83
2022/12/07 00:33:48;;;;;;;0.60;0.60;;;3.30;99.90;;;;;;5060055;28;20055;-83
2022/12/07 00:36:17;;;;;;;0.70;0.70;;;3.30;99.90;;;;;;5044767;28;20048;-85
2022/12/07 00:38:43;;;;;;;0.63;0.63;;;3.40;99.90;;;;;;5048031;28;20171;-84
2022/12/07 00:41:14;;;;;;;0.60;0.60;;;3.50;99.90;;;;;;5045042;28;20405;-83
2022/12/07 00:43:42;;;;;;;0.68;0.68;;;3.60;99.90;;;;;;5059144;28;20060;-85
2022/12/07 00:46:07;;;;;;;0.68;0.68;;;4.50;99.90;;;;;;5043867;28;20032;-83
2022/12/07 00:48:33;;;;;;;0.65;0.65;;;3.70;99.90;;;;;;5070244;28;20041;-81
2022/12/07 00:50:59;;;;;;;0.55;0.55;;;3.80;99.90;;;;;;5060169;28;20454;-85
2022/12/07 00:53:35;;;;;;;0.65;0.65;;;3.90;99.90;;;;;;5058668;28;20037;-85
2022/12/07 00:56:10;;;;;;;0.45;0.45;;;3.90;99.90;;;;;;5056956;28;20083;-85
2022/12/07 00:58:36;;;;;;;0.60;0.60;;;3.90;99.90;;;;;;5059176;28;20090;-82
2022/12/07 01:01:03;;;;;;;7.97;3.70;;;3.90;99.90;;;;;;5044314;28;20522;-83
2022/12/07 01:03:28;;;;;;;0.65;0.65;;;3.90;99.90;;;;;;5060193;28;20060;-83
2022/12/07 01:05:55;;;;;;;0.60;0.60;;;3.90;99.90;;;;;;5033197;28;20037;-84
2022/12/07 01:08:23;;;;;;;0.60;0.60;;;3.80;99.90;;;;;;5060959;28;20094;-84
2022/12/07 01:10:49;;;;;;;0.70;0.70;;;3.70;99.90;;;;;;5060576;28;20071;-83
2022/12/07 01:13:22;;;;;;;0.60;0.60;;;3.60;99.90;;;;;;5058452;28;20048;-83
2022/12/07 01:15:48;;;;;;;0.52;0.52;;;3.60;99.90;;;;;;5058587;28;20090;-81
2022/12/07 01:18:15;;;;;;;0.60;0.60;;;3.50;99.90;;;;;;5069717;28;20041;-82
2022/12/07 01:20:41;;;;;;;0.50;0.50;;;3.40;99.90;;;;;;5054425;28;20041;-80
2022/12/07 01:23:12;;;;;;;0.60;0.60;;;3.30;99.90;;;;;;5062503;28;20090;-80
2022/12/07 01:25:37;;;;;;;0.60;0.60;;;4.10;99.90;;;;;;5054921;28;20041;-81
2022/12/07 01:28:03;;;;;;;0.60;0.60;;;3.40;99.90;;;;;;5042701;28;20061;-83
2022/12/07 01:30:30;;;;;;;0.80;0.80;;;2.90;99.90;;;;;;5058225;28;20052;-82
2022/12/07 01:32:55;;;;;;;0.70;0.70;;;3.50;99.90;;;;;;5062008;28;20052;-84
2022/12/07 01:35:21;;;;;;;0.60;0.60;;;3.50;99.90;;;;;;5059068;28;20528;-83
2022/12/07 01:37:47;;;;;;;0.60;0.60;;;3.60;99.90;;;;;;5065160;28;20135;-85
2022/12/07 01:40:12;;;;;;;0.60;0.60;;;4.10;99.90;;;;;;5063861;28;20203;-84
2022/12/07 01:42:38;;;;;;;0.70;0.70;;;3.70;99.90;;;;;;5068084;28;20048;-83
2022/12/07 01:45:47;;;;;;;0.60;0.60;;;3.70;99.90;;;;;;5067951;28;20053;-84
2022/12/07 01:48:16;;;;;;;0.60;0.60;;;3.80;99.90;;;;;;5045941;28;20032;-82
2022/12/07 01:50:48;;;;;;;0.60;0.60;;;3.90;99.90;;;;;;5079681;28;20067;-83
2022/12/07 01:53:17;;;;;;;0.60;0.60;;;3.80;99.90;;;;;;5068205;28;20049;-84
2022/12/07 01:55:45;;;;;;;0.57;0.57;;;3.80;99.90;;;;;;5046928;28;20072;-84
2022/12/07 01:58:13;;;;;;;0.60;0.60;;;3.70;99.90;;;;;;5066837;28;20047;-86
2022/12/07 02:00:40;;;;;;;0.60;0.60;;;3.70;99.90;;;;;;5078842;28;20078;-83
2022/12/07 02:03:28;;;;;;;0.68;0.68;;;3.60;99.90;;;;;;5066743;28;20446;-81
2022/12/07 02:05:55;;;;;;;0.70;0.70;;;3.90;99.90;;;;;;5069766;28;20036;-82
2022/12/07 02:08:21;;;;;;;0.50;0.50;;;3.30;99.90;;;;;;5072206;28;20548;-84
2022/12/07 02:10:47;;;;;;;;;;;3.20;99.90;;;;;;5065947;28;20090;-83
2022/12/07 02:13:14;;;;;;;0.60;0.60;;;3.70;99.90;;;;;;5046171;28;19921;-83
2022/12/07 02:16:08;;;;;;;0.70;0.70;;;3.00;99.90;;;;;;5063229;28;20564;-84
2022/12/07 02:18:46;;;;;;;0.60;0.60;;;2.80;99.90;;;;;;5061980;28;20512;-84
2022/12/07 02:21:24;;;;;;;0.60;0.60;;;2.70;99.90;;;;;;5062390;28;20140;-82
2022/12/07 02:24:36;;;;;;;0.60;0.60;;;2.70;99.90;;;;;;5069543;28;20385;-83
2022/12/07 02:27:43;;;;;;;0.60;0.60;;;2.60;99.90;;;;;;5044527;28;20614;-84
2022/12/07 02:30:13;;;;;;;0.65;0.65;;;4.60;99.90;;;;;;5042823;28;20151;-83
2022/12/07 02:33:05;;;;;;;0.60;0.60;;;2.50;99.90;;;;;;5062885;28;20428;-83
2022/12/07 02:35:36;;;;;;;0.60;0.60;;;2.60;99.90;;;;;;5060821;28;20045;-82
2022/12/07 02:38:38;;;;;;;0.60;0.60;;;2.60;99.90;;;;;;5063150;28;20044;-84
2022/12/07 02:41:17;;;;;;;0.50;0.50;;;2.60;99.90;;;;;;5062151;28;20106;-85
2022/12/07 02:43:53;;;;;;;0.70;0.70;;;2.60;99.90;;;;;;5065923;28;20053;-83
2022/12/07 02:46:34;;;;;;;0.50;0.50;;;2.70;99.90;;;;;;5064741;28;20041;-81
2022/12/07 02:49:00;;;;;;;0.60;0.60;;;3.00;99.90;;;;;;5061089;28;20132;-85
2022/12/07 02:51:30;;;;;;;0.70;0.70;;;3.10;99.90;;;;;;5046355;28;20147;-83
2022/12/07 02:53:56;;;;;;;0.68;0.68;;;3.30;99.90;;;;;;5061486;28;20501;-83
2022/12/07 02:56:47;;;;;;;0.60;0.60;;;3.40;99.90;;;;;;5057954;28;20045;-83
2022/12/07 02:59:24;;;;;;;0.57;0.57;;;3.50;99.90;;;;;;5074019;28;20465;-85
2022/12/07 03:01:59;;;;;;;0.50;0.50;;;3.50;99.90;;;;;;5063480;28;20060;-83
2022/12/07 03:04:32;;;;;;;0.55;0.55;;;3.50;99.90;;;;;;5057618;28;20063;-82
2022/12/07 03:07:10;;;;;;;8.02;1.13;;;3.40;99.90;;;;;;5041740;28;20045;-80
2022/12/07 03:10:00;;;;;;;0.60;0.60;;;3.30;99.90;;;;;;5043955;28;20071;-81
2022/12/07 03:12:42;;;;;;;0.63;0.63;;;3.50;99.90;;;;;;5060519;28;20044;-81
2022/12/07 03:15:16;;;;;;;0.60;0.60;;;3.20;99.90;;;;;;5047403;28;20041;-82
2022/12/07 03:17:45;;;;;;;0.70;0.70;;;3.30;99.90;;;;;;5059525;28;20032;-82
2022/12/07 03:20:15;;;;;;;0.70;0.70;;;3.20;99.90;;;;;;5059902;28;20048;-83
2022/12/07 03:22:43;;;;;;;0.70;0.70;;;3.20;99.90;;;;;;5045391;28;20390;-86
2022/12/07 03:25:13;;;;;;;0.50;0.50;;;3.30;99.90;;;;;;5047138;28;20048;-84
2022/12/07 03:27:51;;;;;;;0.50;0.50;;;3.40;99.90;;;;;;5054318;28;20481;-82
2022/12/07 03:30:21;;;;;;;0.60;0.60;;;4.80;99.90;;;;;;5044039;28;20067;-83
2022/12/07 03:33:03;;;;;;;0.50;0.50;;;4.90;99.90;;;;;;5044360;28;20048;-80
2022/12/07 03:35:43;;;;;;;0.55;0.55;;;3.30;99.90;;;;;;5052036;28;20033;-84
2022/12/07 03:38:15;;;;;;;0.50;0.50;;;3.30;99.90;;;;;;5061699;28;20706;-83
2022/12/07 03:40:58;;;;;;;2.60;0.95;;;3.30;99.90;;;;;;5061833;28;20052;-86
2022/12/07 03:43:24;;;;;;;0.60;0.60;;;3.30;99.90;;;;;;5061658;28;20059;-81
2022/12/07 03:46:29;;;;;;;0.63;0.63;;;3.40;99.90;;;;;;5045274;28;20045;-83
2022/12/07 03:49:04;;;;;;;0.52;0.52;;;3.50;99.90;;;;;;5058672;28;20470;-86
2022/12/07 03:52:12;;;;;;;0.77;0.77;;;3.40;99.90;;;;;;5056662;28;20048;-84
2022/12/07 03:54:45;;;;;;;0.50;0.50;;;3.40;99.90;;;;;;5053164;28;20115;-83
2022/12/07 03:57:18;;;;;;;0.47;0.47;;;3.40;99.90;;;;;;5058141;28;20055;-84
2022/12/07 03:59:44;;;;;;;0.60;0.60;;;3.30;99.90;;;;;;5046649;28;20048;-84
2022/12/07 04:02:13;;;;;;;0.60;0.60;;;3.30;99.90;;;;;;5038143;28;20051;-84
2022/12/07 04:04:39;;;;;;;0.60;0.60;;;3.80;99.90;;;;;;5060234;28;20126;-83
2022/12/07 04:07:05;;;;;;;0.60;0.60;;;3.50;99.90;;;;;;5074485;28;20036;-81
2022/12/07 04:09:31;;;;;;;0.60;0.60;;;3.10;99.90;;;;;;5036452;28;20032;-84
2022/12/07 04:11:56;;;;;;;0.68;0.68;;;3.00;99.90;;;;;;5058869;28;20085;-85
2022/12/07 04:14:22;;;;;;;0.70;0.70;;;2.90;99.90;;;;;;5039023;28;20051;-84
2022/12/07 04:16:58;;;;;;;0.60;0.60;;;4.30;99.90;;;;;;5047597;28;20071;-82
2022/12/07 04:19:29;;;;;;;0.60;0.60;;;2.80;99.90;;;;;;5072844;28;20055;-84
2022/12/07 04:21:58;;;;;;;0.77;0.77;;;2.70;99.90;;;;;;5066907;28;20044;-84
2022/12/07 04:24:24;;;;;;;0.52;0.52;;;3.70;99.90;;;;;;5050742;28;20113;-83
2022/12/07 04:26:50;;;;;;;0.60;0.60;;;3.30;99.90;;;;;;5064995;28;20036;-83
2022/12/07 04:29:17;;;;;;;0.63;0.63;;;2.70;99.90;;;;;;5058950;28;20049;-85
2022/12/07 04:31:43;;;;;;;0.70;0.70;;;2.70;99.90;;;;;;5043403;28;20044;-83
2022/12/07 04:34:10;;;;;;;;;;;2.80;99.90;;;;;;5062633;28;20048;-82
2022/12/07 04:36:36;;;;;;;0.60;0.60;;;3.00;99.90;;;;;;5062438;28;19920;-85
2022/12/07 04:39:03;;;;;;;;;;;2.80;99.90;;;;;;5061194;28;20044;-83
2022/12/07 04:41:29;;;;;;;;;;;4.00;99.90;;;;;;5076874;28;19931;-82
2022/12/07 04:43:55;;;;;;;0.60;0.60;;;2.90;99.90;;;;;;5059095;28;19920;-82
2022/12/07 04:46:24;;;;;;;0.70;0.70;;;2.90;99.90;;;;;;5056648;28;20120;-83
2022/12/07 04:48:50;;;;;;;0.60;0.60;;;2.90;99.90;;;;;;5060502;28;21759;-86
2022/12/07 04:51:20;;;;;;;0.60;0.60;;;2.90;99.90;;;;;;5058880;28;20045;-85
2022/12/07 04:53:46;;;;;;;0.60;0.60;;;2.80;99.90;;;;;;5062764;28;20052;-85
2022/12/07 04:56:17;;;;;;;0.60;0.60;;;2.80;99.90;;;;;;5064345;28;20040;-85
2022/12/07 04:58:44;;;;;;;0.55;0.55;;;2.70;99.90;;;;;;5062196;28;20059;-83
2022/12/07 05:01:23;;;;;;;0.60;0.60;;;2.60;99.90;;;;;;5060836;28;20052;-83
2022/12/07 05:03:50;;;;;;;0.70;0.70;;;2.50;99.90;;;;;;5058447;28;20512;-86
2022/12/07 05:06:17;;;;;;;0.65;0.65;;;2.40;99.90;;;;;;5049846;28;20044;-82
2022/12/07 05:08:43;;;;;;;;;;;2.40;99.90;;;;;;5043542;28;20477;-84
2022/12/07 05:11:37;;;;;;;0.60;0.60;;;2.40;99.90;;;;;;5072811;28;19935;-82
2022/12/07 05:13:57;;;;;;;0.70;0.70;;;2.00;99.90;;;;;;5065064;28;20056;-83
2022/12/07 05:16:22;;;;;;;0.60;0.60;;;3.50;99.90;;;;;;5069092;28;20041;-87
2022/12/07 05:18:48;;;;;;;0.63;0.63;;;1.90;99.90;;;;;;5051282;28;20044;-82
2022/12/07 05:21:14;;;;;;;0.70;0.70;;;1.80;99.90;;;;;;5047946;28;20401;-84
2022/12/07 05:23:39;;;;;;;0.65;0.65;;;1.80;99.90;;;;;;5071537;28;20056;-84
2022/12/07 05:26:05;;;;;;;0.88;0.88;;;1.70;99.90;;;;;;5061905;28;20036;-83
2022/12/07 05:28:31;;;;;;;0.70;0.70;;;1.70;99.90;;;;;;5065609;28;20033;-83
2022/12/07 05:30:56;;;;;;;0.77;0.77;;;1.60;99.90;;;;;;5064169;28;20052;-87
2022/12/07 05:33:22;;;;;;;0.70;0.70;;;3.20;99.90;;;;;;5065119;28;20119;-86
2022/12/07 05:35:49;;;;;;;0.65;0.65;;;2.80;99.90;;;;;;5037781;28;20052;-87
2022/12/07 05:38:15;;;;;;;0.60;0.60;;;2.80;99.90;;;;;;5044518;28;20056;-83
2022/12/07 05:40:41;;;;;;;0.80;0.80;;;1.50;99.90;;;;;;5064334;28;20045;-83
2022/12/07 05:43:06;;;;;;;0.70;0.70;;;2.40;99.90;;;;;;5074642;28;20072;-82
2022/12/07 05:45:32;;;;;;;0.75;0.75;;;1.60;99.90;;;;;;5046769;28;20131;-83
2022/12/07 05:47:58;;;;;;;0.80;0.80;;;1.60;99.90;;;;;;5044428;28;20483;-86
2022/12/07 05:50:24;;;;;;;0.70;0.70;;;1.70;99.90;;;;;;5063573;28;20452;-85
2022/12/07 05:52:49;;;;;;;1.23;1.23;;;1.80;99.90;;;;;;5063212;28;20057;-83
2022/12/07 05:55:15;;;;;;;0.60;0.60;;;1.90;99.90;;;;;;5032149;28;20090;-84
2022/12/07 05:59:22;;;;;;;0.60;0.60;;;2.50;99.90;;;;;;5062938;28;20028;-84
2022/12/07 06:00:26;;;;;;;0.63;0.63;;;1.80;99.90;;;;;;5066547;28;20041;-82
2022/12/07 06:02:52;;;;;;;0.70;0.70;;;2.00;99.90;;;;;;5046804;28;20033;-81
2022/12/07 06:05:18;;;;;;;0.65;0.65;;;1.90;99.90;;;;;;5044487;28;20045;-84
2022/12/07 06:07:43;;;;;;;0.70;0.70;;;1.90;99.90;;;;;;5063542;28;20110;-81
2022/12/07 06:10:10;;;;;;;0.80;0.80;;;2.00;99.90;;;;;;5060606;28;20036;-83
2022/12/07 06:12:38;;;;;;;0.60;0.60;;;2.10;99.90;;;;;;5046389;28;20040;-82
2022/12/07 06:15:07;;;;;;;0.60;0.60;;;3.50;99.90;;;;;;5062189;28;20089;-84
2022/12/07 06:17:32;;;;;;;0.60;0.60;;;2.50;99.90;;;;;;5033236;28;20097;-85
2022/12/07 06:19:58;;;;;;;0.80;0.80;;;2.60;99.90;;;;;;5047607;28;20037;-82
2022/12/07 06:22:25;;;;;;;0.70;0.70;;;3.60;99.90;;;;;;5039100;28;20037;-85
2022/12/07 06:24:51;;;;;;;0.55;0.55;;;2.60;99.90;;;;;;5026238;28;20076;-82
2022/12/07 06:27:17;;;;;;;0.60;0.60;;;2.70;99.90;;;;;;5045458;28;20466;-82
2022/12/07 06:29:43;;;;;;;0.63;0.63;;;3.00;99.90;;;;;;5035914;28;20041;-85
2022/12/07 06:32:09;;;;;;;0.70;0.70;;;2.60;99.90;;;;;;5064735;28;20040;-81
2022/12/07 06:34:35;;;;;;;0.70;0.70;;;2.60;99.90;;;;;;5062816;28;20060;-80
2022/12/07 06:37:00;;;;;;;0.70;0.70;;;2.40;99.90;;;;;;5055793;28;20045;-82
2022/12/07 06:39:27;;;;;;;0.60;0.60;;;2.40;99.90;;;;;;5044587;28;20089;-82
2022/12/07 06:41:54;;;;;;;0.60;0.60;;;2.30;99.90;;;;;;5042580;28;20048;-83
2022/12/07 06:44:21;;;;;;;0.70;0.70;;;3.70;99.90;;;;;;5061511;28;20041;-83
2022/12/07 06:46:47;;;;;;;0.63;0.63;;;2.00;99.90;;;;;;5059690;28;20090;-81
2022/12/07 06:49:13;;;;;;;0.80;0.80;;;2.00;99.90;;;;;;5033873;28;20718;-84
2022/12/07 06:51:41;;;;;;;0.60;0.60;;;1.90;99.90;;;;;;5059941;28;20111;-82
2022/12/07 06:54:14;;;;;;;0.65;0.65;;;1.70;99.90;;;;;;5068798;28;20116;-83
2022/12/07 06:56:40;;;;;;;0.70;0.70;;;1.60;99.90;;;;;;5067050;28;20032;-80
2022/12/07 06:59:07;;;;;;;0.73;0.73;;;1.60;99.90;;;;;;5063428;28;20589;-85
2022/12/07 07:01:34;;;;;;;0.68;0.68;;;2.60;99.90;;;;;;5060710;28;20397;-83
2022/12/07 07:04:00;;;;;;;0.60;0.60;;;1.80;99.90;;;;;;5062211;28;20146;-85
2022/12/07 07:06:26;;;;;;;0.85;0.85;;;1.90;99.90;;;;;;5043413;28;20078;-84
2022/12/07 07:08:52;;;;;;;0.70;0.70;;;2.60;99.90;;;;;;5049206;28;20050;-84
2022/12/07 07:11:18;;;;;;;0.50;0.50;;;2.40;99.90;;;;;;5049305;28;20125;-85
2022/12/07 07:13:44;;;;;;;0.63;0.63;;;2.40;99.90;;;;;;5066687;28;20051;-88
2022/12/07 07:16:16;;;;;;;0.60;0.60;;;2.50;99.90;;;;;;5061555;28;20067;-83
2022/12/07 07:18:42;;;;;;;0.70;0.70;;;2.50;99.90;;;;;;5045541;28;20037;-86
2022/12/07 07:21:07;;;;;;;0.70;0.70;;;3.90;99.90;;;;;;5055256;28;20036;-85
2022/12/07 07:23:33;;;;;;;0.80;0.80;;;2.70;99.90;;;;;;5022359;28;20114;-86
2022/12/07 07:25:59;;;;;;;0.60;0.60;;;2.70;99.90;;;;;;5073656;28;20043;-86
2022/12/07 07:28:25;;;;;;;0.73;0.73;;;2.80;99.90;;;;;;5042878;28;20124;-86
2022/12/07 07:30:51;;;;;;;0.77;0.77;;;3.50;99.90;;;;;;5062257;28;20119;-87
2022/12/07 07:33:16;;;;;;;0.70;0.70;;;2.90;99.90;;;;;;5056940;28;20041;-88
2022/12/07 07:35:42;;;;;;;0.70;0.70;;;3.00;99.90;;;;;;5056215;28;20041;-86
2022/12/07 07:38:08;;;;;;;0.70;0.70;;;4.40;99.90;;;;;;5072141;28;20078;-86
2022/12/07 07:40:35;;;;;;;0.70;0.70;;;3.00;99.90;;;;;;5045555;28;20044;-86
2022/12/07 07:43:02;;;;;;;0.65;0.65;;;3.20;99.90;;;;;;5070080;28;20049;-85
2022/12/07 07:45:28;;;;;;;0.50;0.50;;;2.90;99.90;;;;;;5056354;28;20123;-85
2022/12/07 07:47:54;;;;;;;0.60;0.60;;;2.80;99.90;;;;;;5045484;28;20107;-86
2022/12/07 07:50:20;;;;;;;0.70;0.70;;;3.90;99.90;;;;;;5079615;28;20045;-84
2022/12/07 07:52:48;;;;;;;0.70;0.70;;;2.70;99.90;;;;;;5039110;28;20037;-86
2022/12/07 07:55:14;;;;;;;0.60;0.60;;;2.60;99.90;;;;;;5040605;28;20048;-85
2022/12/07 07:57:41;;;;;;;1.08;1.08;;;2.60;99.90;;;;;;5060720;28;20045;-85
2022/12/07 08:00:10;;;;;;;0.55;0.55;;;4.00;99.90;;;;;;5062863;28;20043;-86
2022/12/07 08:02:36;;;;;;;0.60;0.60;;;2.50;99.90;;;;;;5068882;28;20040;-85
2022/12/07 08:05:03;;;;;;;0.70;0.70;;;2.50;99.90;;;;;;5064769;28;20122;-85
2022/12/07 08:07:30;;;;;;;0.63;0.63;;;2.40;99.90;;;;;;5038148;28;20048;-86
2022/12/07 08:09:56;;;;;;;0.65;0.65;;;2.90;99.90;;;;;;5069601;28;20071;-86
2022/12/07 08:12:25;;;;;;;0.60;0.60;;;2.30;99.90;;;;;;5044254;28;20504;-85
2022/12/07 08:14:51;;;;;;;0.57;0.57;;;2.30;99.90;;;;;;5047407;28;20044;-86
2022/12/07 08:17:17;;;;;;;0.60;0.60;;;2.20;99.90;;;;;;5037242;28;20047;-85
2022/12/07 08:19:42;;;;;;;0.60;0.60;;;2.90;99.90;;;;;;5056947;28;20127;-85
2022/12/07 08:22:08;;;;;;;0.70;0.70;;;2.10;99.90;;;;;;5037890;28;20091;-85
2022/12/07 08:24:35;;;;;;;0.60;0.60;;;2.10;99.90;;;;;;5058405;28;20124;-86
2022/12/07 08:27:01;;;;;;;0.60;0.60;;;2.20;99.90;;;;;;5064194;28;20052;-85
2022/12/07 08:29:27;;;;;;;0.65;0.65;;;2.20;99.90;;;;;;5054215;28;20049;-85
2022/12/07 08:31:53;;;;;;;0.63;0.63;;;2.20;99.90;;;;;;5055667;28;20409;-85
2022/12/07 08:34:18;;;;;;;2.25;2.15;;;2.20;99.90;;;;;;5058530;28;20033;-83
2022/12/07 08:36:44;;;;;;;;;;;2.40;99.90;;;;;;5060782;28;20036;-87
2022/12/07 08:39:10;;;;;;;0.88;0.88;;;2.40;99.90;;;;;;5052313;28;19916;-85
2022/12/07 08:41:36;;;;;;;0.60;0.60;;;3.90;99.90;;;;;;5063851;28;20044;-85
2022/12/07 08:44:02;;;;;;;0.60;0.60;;;2.60;99.90;;;;;;5050949;28;20071;-86
2022/12/07 08:46:37;;;;;;;;;;;2.60;99.90;;;;;;5061383;28;20037;-86
2022/12/07 08:49:06;;;;;;;0.60;0.60;;;2.70;99.90;;;;;;5080007;28;19974;-84
2022/12/07 08:51:32;;;;;;;0.60;0.60;;;2.70;99.90;;;;;;5058018;28;20060;-86
2022/12/07 08:54:04;;;;;;;0.60;0.60;;;2.80;99.90;;;;;;5077937;28;20053;-85
2022/12/07 08:56:31;;;;;;;0.60;0.60;;;2.80;99.90;;;;;;5063840;28;20075;-86
2022/12/07 08:58:58;;;;;;;0.60;0.60;;;2.90;99.90;;;;;;5065908;28;20068;-88
2022/12/07 09:01:23;;;;;;;0.63;0.63;;;3.00;99.90;;;;;;5063374;28;20432;-82
2022/12/07 09:03:49;;;;;;;0.60;0.60;;;3.20;99.90;;;;;;5060351;28;20102;-84
2022/12/07 09:06:15;;;;;;;0.60;0.60;;;3.20;99.90;;;;;;5064892;28;20037;-86
2022/12/07 09:08:47;;;;;;;0.60;0.60;;;3.30;99.90;;;;;;5038425;28;20072;-83
2022/12/07 09:11:12;;;;;;;0.70;0.70;;;4.40;99.90;;;;;;5061299;28;20072;-84
2022/12/07 09:13:38;;;;;;;0.70;0.70;;;3.40;99.90;;;;;;5063010;28;20516;-86
2022/12/07 09:16:04;;;;;;;0.70;0.70;;;4.00;99.90;;;;;;5066692;28;20513;-86
2022/12/07 09:18:30;;;;;;;0.50;0.50;;;3.50;99.90;;;;;;5061945;28;20040;-82
2022/12/07 09:21:02;;;;;;;0.63;0.63;;;3.70;99.90;;;;;;5049920;28;20043;-85
2022/12/07 09:23:28;;;;;;;1.65;1.42;;;3.80;99.90;;;;;;5056377;28;20041;-84
2022/12/07 09:25:54;;;;;;;0.60;0.60;;;3.90;99.90;;;;;;5055838;28;20040;-83
2022/12/07 09:28:21;;;;;;;0.50;0.50;;;5.10;99.90;;;;;;5044098;28;20044;-84
2022/12/07 09:30:48;;;;;;;0.57;0.57;;;4.20;99.90;;;;;;5041478;28;20405;-81
2022/12/07 09:33:14;;;;;;;0.65;0.65;;;4.30;99.90;;;;;;5041200;28;20049;-83
2022/12/07 09:35:48;;;;;;;;;;;4.40;99.90;;;;;;5044860;28;20044;-84
2022/12/07 09:38:15;;;;;;;0.60;0.60;;;4.40;99.90;;;;;;5050051;28;19971;-84
2022/12/07 09:40:43;;;;;;;0.60;0.60;;;5.20;99.90;;;;;;5063364;28;20549;-83
2022/12/07 09:43:19;;;;;;;0.45;0.45;;;5.10;99.90;;;;;;5064525;28;20048;-84
2022/12/07 09:45:47;;;;;;;0.60;0.60;;;4.50;99.90;;;;;;5055944;28;20108;-82
2022/12/07 09:48:20;;;;;;;0.50;0.50;;;4.60;99.90;;;;;;5047183;28;20033;-81
2022/12/07 09:50:48;;;;;;;0.60;0.60;;;4.90;99.90;;;;;;5042475;28;20044;-82
2022/12/07 09:53:44;;;;;;;0.50;0.50;;;4.90;99.90;;;;;;5068397;28;20049;-83
2022/12/07 09:56:15;;;;;;;0.60;0.60;;;4.80;99.90;;;;;;5083468;28;20429;-84
2022/12/07 09:58:42;;;;;;;0.60;0.60;;;4.80;99.90;;;;;;5042179;28;20055;-85
2022/12/07 10:01:08;;;;;;;0.60;0.60;;;6.00;99.90;;;;;;5055295;28;20040;-84
2022/12/07 10:03:38;;;;;;;0.60;0.60;;;5.40;99.90;;;;;;5057979;28;20043;-84
2022/12/07 10:06:05;;;;;;;0.63;0.63;;;4.70;99.90;;;;;;5061217;28;20045;-82
2022/12/07 10:08:32;;;;;;;0.50;0.50;;;4.70;99.90;;;;;;5057631;28;20036;-83
2022/12/07 10:11:10;;;;;;;0.70;0.70;;;4.80;99.90;;;;;;5040923;28;20049;-84
2022/12/07 10:13:48;;;;;;;0.57;0.57;;;4.80;99.90;;;;;;5059729;28;20390;-83
2022/12/07 10:16:38;;;;;;;0.80;0.80;;;5.00;99.90;;;;;;5065833;28;20111;-83
2022/12/07 10:19:22;;;;;;;0.60;0.60;;;4.80;99.90;;;;;;5060716;28;20138;-85
2022/12/07 10:22:01;;;;;;;0.50;0.50;;;5.90;99.90;;;;;;5067423;28;20037;-81
2022/12/07 10:24:27;;;;;;;0.50;0.50;;;4.90;99.90;;;;;;5082867;28;20041;-83
2022/12/07 10:26:53;;;;;;;0.60;0.60;;;5.70;99.90;;;;;;5043597;28;20519;-83
2022/12/07 10:29:37;;;;;;;0.60;0.60;;;5.00;99.90;;;;;;5066030;28;20040;-84
2022/12/07 10:32:34;;;;;;;0.63;0.63;;;6.20;99.90;;;;;;5061055;28;20045;-82
2022/12/07 10:35:29;;;;;;;0.50;0.50;;;5.10;99.90;;;;;;5076843;28;20075;-83
2022/12/07 10:37:57;;;;;;;0.68;0.68;;;5.10;99.90;;;;;;5037032;28;20045;-84
2022/12/07 10:40:28;;;;;;;1.35;1.35;;;5.20;99.90;;;;;;5065689;28;20743;-84
2022/12/07 10:43:05;;;;;;;0.70;0.70;;;5.30;99.90;;;;;;5072151;28;20056;-82
2022/12/07 10:45:32;;;;;;;0.70;0.70;;;5.30;99.90;;;;;;5068796;28;20056;-84
2022/12/07 10:48:23;;;;;;;0.70;0.70;;;6.10;99.90;;;;;;5066303;28;20497;-81
2022/12/07 10:51:17;;;;;;;0.60;0.60;;;5.40;99.90;;;;;;5049350;28;20044;-81
2022/12/07 10:54:05;;;;;;;0.52;0.52;;;5.40;99.90;;;;;;5068204;28;20040;-83
2022/12/07 10:56:37;;;;;;;0.60;0.60;;;5.40;99.90;;;;;;5068434;28;20049;-82
2022/12/07 10:59:15;;;;;;;0.52;0.52;;;5.30;99.90;;;;;;5049433;28;20290;-84
2022/12/07 11:01:54;;;;;;;0.60;0.60;;;5.00;99.90;;;;;;5076372;28;20481;-82
2022/12/07 11:04:33;;;;;;;0.68;0.68;;;4.70;99.90;;;;;;5069500;28;20044;-82
2022/12/07 11:07:14;;;;;;;0.60;0.60;;;4.50;99.90;;;;;;5065922;28;20048;-80
2022/12/07 11:10:18;;;;;;;0.75;0.75;;;4.40;99.90;;;;;;5045835;28;20064;-84
2022/12/07 11:13:11;;;;;;;0.60;0.60;;;4.40;99.90;;;;;;5078811;28;20043;-84
2022/12/07 11:16:01;;;;;;;0.50;0.50;;;4.50;99.90;;;;;;5065017;28;20070;-84
2022/12/07 11:18:36;;;;;;;0.60;0.60;;;4.30;99.90;;;;;;5048926;28;20075;-85
2022/12/07 11:21:34;;;;;;;0.50;0.50;;;4.20;99.90;;;;;;5064148;28;20040;-82
2022/12/07 11:24:18;;;;;;;0.60;0.60;;;5.00;99.90;;;;;;5063882;28;20071;-82
2022/12/07 11:27:05;;;;;;;0.68;0.68;;;4.60;99.90;;;;;;5061291;28;20090;-83
2022/12/07 11:29:44;;;;;;;0.60;0.60;;;4.30;99.90;;;;;;5059594;28;20040;-82
2022/12/07 11:32:32;;;;;;;0.80;0.80;;;4.80;99.90;;;;;;5045263;28;20053;-83
2022/12/07 11:35:35;;;;;;;0.40;0.40;;;4.40;99.90;;;;;;5063287;28;20103;-83
2022/12/07 11:38:23;;;;;;;0.60;0.60;;;4.60;99.90;;;;;;5065932;28;20151;-84
2022/12/07 11:40:52;;;;;;;0.60;0.60;;;4.70;99.90;;;;;;5052955;28;20048;-79
2022/12/07 11:43:28;;;;;;;0.63;0.63;;;5.50;99.90;;;;;;5044902;28;20429;-82
2022/12/07 11:46:12;;;;;;;0.57;0.57;;;5.00;99.90;;;;;;5057809;28;20496;-82
2022/12/07 11:48:46;;;;;;;0.50;0.50;;;5.00;99.90;;;;;;5072755;28;20417;-84
2022/12/07 11:51:14;;;;;;;0.55;0.55;;;5.10;99.90;;;;;;5064286;28;20054;-86
2022/12/07 11:53:56;;;;;;;0.50;0.50;;;5.10;99.90;;;;;;5067561;28;20177;-84
2022/12/07 11:56:26;;;;;;;0.40;0.40;;;5.00;99.90;;;;;;5060813;28;20512;-83
2022/12/07 11:58:58;;;;;;;0.60;0.60;;;5.60;99.90;;;;;;5076475;28;20386;-82
2022/12/07 12:01:39;;;;;;;0.47;0.47;;;3.50;99.90;;;;;;5082916;28;20035;-83
2022/12/07 12:04:11;;;;;;;0.65;0.65;;;6.60;99.90;;;;;;5067346;28;20091;-82
2022/12/07 12:06:42;;;;;;;0.50;0.50;;;5.00;99.90;;;;;;5081086;28;20439;-81
2022/12/07 12:09:16;;;;;;;0.47;0.47;;;4.90;99.90;;;;;;5058531;28;20083;-84
2022/12/07 12:11:57;;;;;;;0.60;0.60;;;4.90;99.90;;;;;;5065246;28;20047;-82
2022/12/07 12:15:00;;;;;;;0.52;0.52;;;4.80;99.90;;;;;;5071984;28;20493;-84
2022/12/07 12:17:31;;;;;;;0.63;0.63;;;4.90;99.90;;;;;;5061757;28;20085;-81
2022/12/07 12:20:25;;;;;;;0.40;0.40;;;4.90;99.90;;;;;;5054320;28;20040;-84
2022/12/07 12:22:58;;;;;;;0.60;0.60;;;4.90;99.90;;;;;;5059757;28;20060;-81
2022/12/07 12:25:28;;;;;;;0.60;0.60;;;4.90;99.90;;;;;;5068570;28;20090;-82
2022/12/07 12:27:57;;;;;;;0.60;0.60;;;5.10;99.90;;;;;;5053713;28;20045;-83
2022/12/07 12:30:32;;;;;;;0.50;0.50;;;4.90;99.90;;;;;;5061939;28;20121;-81
2022/12/07 12:33:25;;;;;;;0.52;0.52;;;5.00;99.90;;;;;;5071682;28;20056;-82
2022/12/07 12:36:19;;;;;;;0.52;0.52;;;5.00;99.90;;;;;;5062625;28;20094;-83
2022/12/07 12:39:07;;;;;;;0.52;0.52;;;5.10;99.90;;;;;;5060354;28;20040;-83
2022/12/07 12:41:37;;;;;;;0.60;0.60;;;5.10;99.90;;;;;;5069527;28;20592;-81
2022/12/07 12:44:19;;;;;;;0.60;0.60;;;5.20;99.90;;;;;;5056199;28;20056;-82
2022/12/07 12:47:25;;;;;;;0.50;0.50;;;5.20;99.90;;;;;;5060365;28;20123;-82
2022/12/07 12:50:15;;;;;;;0.68;0.68;;;5.20;99.90;;;;;;5043803;28;20041;-84
2022/12/07 12:52:41;;;;;;;0.60;0.60;;;5.30;99.90;;;;;;5062278;28;20044;-83
2022/12/07 12:55:09;;;;;;;0.60;0.60;;;5.20;99.90;;;;;;5064296;28;20045;-82
2022/12/07 12:57:36;;;;;;;0.50;0.50;;;5.20;99.90;;;;;;5070296;28;20044;-82
2022/12/07 13:00:23;;;;;;;0.65;0.65;;;5.20;99.90;;;;;;5059162;28;20155;-83
2022/12/07 13:02:59;;;;;;;2.50;1.20;;;5.10;99.90;;;;;;5041116;28;20068;-83
2022/12/07 13:05:34;;;;;;;0.60;0.60;;;5.00;99.90;;;;;;5058244;28;20496;-83
2022/12/07 13:08:05;;;;;;;0.55;0.55;;;5.00;99.90;;;;;;5046592;28;20029;-81
2022/12/07 13:10:40;;;;;;;0.55;0.55;;;4.90;99.90;;;;;;5044696;28;20119;-80
2022/12/07 13:15:44;;;;;;;0.55;0.55;;;4.80;99.90;;;;;;5060034;28;20432;-82
2022/12/07 13:18:28;;;;;;;0.63;0.63;;;4.80;99.90;;;;;;5066666;28;20483;-82
2022/12/07 13:21:08;;;;;;;0.50;0.50;;;5.10;99.90;;;;;;5063761;28;20128;-83
2022/12/07 13:23:43;;;;;;;0.50;0.50;;;4.90;99.90;;;;;;5065293;28;20040;-82
2022/12/07 13:26:32;;;;;;;0.60;0.60;;;4.80;99.90;;;;;;5047219;28;20036;-82
2022/12/07 13:29:10;;;;;;;0.60;0.60;;;4.80;99.90;;;;;;5063325;28;20041;-83